titivate.jp alexa rank chart, titivate.jp alexa rank daily changes

titivate.jp alexa rank chart, titivate.jp alexa rank daily changes

titivate.jp
Actual rank:
404 279

RANK HISTORY

Date Rank Diff
2017/05/24 404 279 +50 834
2017/05/23 353 445 +15 609
2017/05/22 337 836 +14 295
2017/05/21 323 541 -5 817
2017/05/20 329 358 +17 496
2017/05/19 311 862 -13 337
2017/05/18 325 199 +25 881
2017/05/17 299 318 +17 217
2017/05/16 282 101 -367
2017/05/15 282 468 -717
2017/05/14 283 185 -5 644
2017/05/13 288 829 -70
2017/05/12 288 899 -201
2017/05/11 289 100 -33 663
2017/05/10 322 763 +20 488
2017/05/09 302 275 -15 565
2017/05/08 317 840 -1 177
2017/05/07 319 017 -493
2017/05/06 319 510 +27 996
2017/05/05 291 514 +20 280
2017/05/04 271 234 +935
2017/05/03 270 299 +13 697
2017/05/02 256 602 +8 613
2017/05/01 247 989 +20 936
2017/04/30 227 053 -7 482
2017/04/29 234 535 -268
2017/04/28 234 803 +926
2017/04/27 233 877 -8 853
2017/04/26 242 730 +277
2017/04/25 242 453 +6 275
2017/04/24 236 178 -10 155
2017/04/23 246 333 +9 487
2017/04/22 236 846 -9 523
2017/04/21 246 369 -8 046
2017/04/20 254 415 -10 054
2017/04/19 264 469 +8 424
2017/04/18 256 045 -17 258
2017/04/17 273 303 +11 408
2017/04/16 261 895 -775
2017/04/15 262 670 +2 249
2017/04/14 260 421 +6 192
2017/04/13 254 229 +21 560
2017/04/12 232 669 +285
2017/04/11 232 384 +8 818
2017/04/10 223 566 -10 046
2017/04/09 233 612 +18 744
2017/04/08 214 868 -366
2017/04/07 215 234 +14 125
2017/04/06 201 109 -10 844
2017/04/05 211 953 -9 713
2017/04/04 221 666 -721
2017/04/03 222 387 +4 298
2017/04/02 218 089 +6 263
2017/04/01 211 826 +96
2017/03/31 211 730 -14 558
2017/03/30 226 288 +6 610
2017/03/29 219 678 +11 858
2017/03/28 207 820 +7 785
2017/03/27 200 035 +1 104
2017/03/26 198 931 +5 201
2017/03/25 193 730

WIDGET FOR YOUR SITE

DOMAINS WITH THE NEAREST RANK

Domain Rank
kinetic-revolution.com 404 274
yuki-style.red 404 275
pesenka.net 404 276
myvlp.com 404 277
goodgamingshop.com 404 278
titivate.jp 404 279
progulkipomoskve.ru 404 280
landcruiserclub.co.za 404 281
swissfriends.ch 404 282
alamo.ca 404 283
bucetassafadas.com.br 404 284

DOMAINS WITH THE NEAREST RANK BY TLD .jp

Domain Rank
gogogogo.jp 403 934
es-novel.jp 403 989
rxy.jp 404 032
nomadit.jp 404 046
lifemile.jp 404 204
titivate.jp 404 279
cerezo.jp 404 317
refopedia.jp 404 321
kyuhaku.jp 404 326
evidon.jp 404 329
star-domain.jp 404 331